sensor_id;sensor_type;location;lat;lon;timestamp;temperature;humidity
6018;DHT22;3037;51.068;13.780;2023-05-13T00:00:27;10.80;99.90
6018;DHT22;3037;51.068;13.780;2023-05-13T00:02:53;10.90;99.90
6018;DHT22;3037;51.068;13.780;2023-05-13T00:05:19;10.80;99.90
6018;DHT22;3037;51.068;13.780;2023-05-13T00:07:45;10.70;99.90
6018;DHT22;3037;51.068;13.780;2023-05-13T00:10:10;10.60;99.90
6018;DHT22;3037;51.068;13.780;2023-05-13T00:12:36;10.50;99.90
6018;DHT22;3037;51.068;13.780;2023-05-13T00:15:02;10.50;99.90
6018;DHT22;3037;51.068;13.780;2023-05-13T00:17:28;10.60;99.90
6018;DHT22;3037;51.068;13.780;2023-05-13T00:19:53;10.60;99.90
6018;DHT22;3037;51.068;13.780;2023-05-13T00:22:19;10.60;99.90
6018;DHT22;3037;51.068;13.780;2023-05-13T00:24:44;10.60;99.90
6018;DHT22;3037;51.068;13.780;2023-05-13T00:27:10;10.60;99.90
6018;DHT22;3037;51.068;13.780;2023-05-13T00:29:35;10.50;99.90
6018;DHT22;3037;51.068;13.780;2023-05-13T00:32:01;10.40;99.90
6018;DHT22;3037;51.068;13.780;2023-05-13T00:34:26;10.40;99.90
6018;DHT22;3037;51.068;13.780;2023-05-13T00:36:52;10.30;99.90
6018;DHT22;3037;51.068;13.780;2023-05-13T00:39:17;10.30;99.90
6018;DHT22;3037;51.068;13.780;2023-05-13T00:41:43;10.20;99.90
6018;DHT22;3037;51.068;13.780;2023-05-13T00:44:09;10.20;99.90
6018;DHT22;3037;51.068;13.780;2023-05-13T00:46:34;10.20;99.90
6018;DHT22;3037;51.068;13.780;2023-05-13T00:49:00;10.10;99.90
6018;DHT22;3037;51.068;13.780;2023-05-13T00:51:26;10.00;99.90
6018;DHT22;3037;51.068;13.780;2023-05-13T00:53:52;9.80;99.90
6018;DHT22;3037;51.068;13.780;2023-05-13T00:56:20;9.80;99.90
6018;DHT22;3037;51.068;13.780;2023-05-13T00:58:47;9.80;99.90
6018;DHT22;3037;51.068;13.780;2023-05-13T01:04:08;9.90;99.90
6018;DHT22;3037;51.068;13.780;2023-05-13T01:06:50;9.90;99.90
6018;DHT22;3037;51.068;13.780;2023-05-13T01:09:50;9.90;99.90
6018;DHT22;3037;51.068;13.780;2023-05-13T01:12:21;9.90;99.90
6018;DHT22;3037;51.068;13.780;2023-05-13T01:15:02;9.70;99.90
6018;DHT22;3037;51.068;13.780;2023-05-13T01:17:46;9.80;99.90
6018;DHT22;3037;51.068;13.780;2023-05-13T01:20:14;9.80;99.90
6018;DHT22;3037;51.068;13.780;2023-05-13T01:22:42;9.70;99.90
6018;DHT22;3037;51.068;13.780;2023-05-13T01:25:08;9.60;99.90
6018;DHT22;3037;51.068;13.780;2023-05-13T01:27:33;9.50;99.90
6018;DHT22;3037;51.068;13.780;2023-05-13T01:29:59;9.60;99.90
6018;DHT22;3037;51.068;13.780;2023-05-13T01:32:25;9.60;99.90
6018;DHT22;3037;51.068;13.780;2023-05-13T01:34:51;9.60;99.90
6018;DHT22;3037;51.068;13.780;2023-05-13T01:37:18;9.50;99.90
6018;DHT22;3037;51.068;13.780;2023-05-13T01:39:44;9.60;99.90
6018;DHT22;3037;51.068;13.780;2023-05-13T01:42:09;9.60;99.90
6018;DHT22;3037;51.068;13.780;2023-05-13T01:44:35;9.50;99.90
6018;DHT22;3037;51.068;13.780;2023-05-13T01:47:00;9.40;99.90
6018;DHT22;3037;51.068;13.780;2023-05-13T01:49:26;9.40;99.90
6018;DHT22;3037;51.068;13.780;2023-05-13T01:51:51;9.30;99.90
6018;DHT22;3037;51.068;13.780;2023-05-13T01:54:17;9.10;99.90
6018;DHT22;3037;51.068;13.780;2023-05-13T01:56:42;8.90;99.90
6018;DHT22;3037;51.068;13.780;2023-05-13T01:59:09;8.80;99.90
6018;DHT22;3037;51.068;13.780;2023-05-13T02:01:35;8.90;99.90
6018;DHT22;3037;51.068;13.780;2023-05-13T02:04:01;8.80;99.90
6018;DHT22;3037;51.068;13.780;2023-05-13T02:06:26;8.70;99.90
6018;DHT22;3037;51.068;13.780;2023-05-13T02:08:52;8.70;99.90
6018;DHT22;3037;51.068;13.780;2023-05-13T02:11:18;8.80;99.90
6018;DHT22;3037;51.068;13.780;2023-05-13T02:13:44;8.70;99.90
6018;DHT22;3037;51.068;13.780;2023-05-13T02:16:15;8.70;99.90
6018;DHT22;3037;51.068;13.780;2023-05-13T02:18:41;8.50;99.90
6018;DHT22;3037;51.068;13.780;2023-05-13T02:21:07;8.50;99.90
6018;DHT22;3037;51.068;13.780;2023-05-13T02:23:32;8.40;99.90
6018;DHT22;3037;51.068;13.780;2023-05-13T02:25:58;8.40;99.90
6018;DHT22;3037;51.068;13.780;2023-05-13T02:28:23;8.50;99.90
6018;DHT22;3037;51.068;13.780;2023-05-13T02:30:49;8.50;99.90
6018;DHT22;3037;51.068;13.780;2023-05-13T02:33:14;8.60;99.90
6018;DHT22;3037;51.068;13.780;2023-05-13T02:35:40;8.50;99.90
6018;DHT22;3037;51.068;13.780;2023-05-13T02:38:08;8.50;99.90
6018;DHT22;3037;51.068;13.780;2023-05-13T02:40:34;8.60;99.90
6018;DHT22;3037;51.068;13.780;2023-05-13T02:42:59;8.70;99.90
6018;DHT22;3037;51.068;13.780;2023-05-13T02:45:25;8.60;99.90
6018;DHT22;3037;51.068;13.780;2023-05-13T02:47:51;8.80;99.90
6018;DHT22;3037;51.068;13.780;2023-05-13T02:50:16;8.80;99.90
6018;DHT22;3037;51.068;13.780;2023-05-13T02:52:42;8.80;99.90
6018;DHT22;3037;51.068;13.780;2023-05-13T02:55:08;8.80;99.90
6018;DHT22;3037;51.068;13.780;2023-05-13T02:57:34;8.80;99.90
6018;DHT22;3037;51.068;13.780;2023-05-13T03:00:00;8.80;99.90
6018;DHT22;3037;51.068;13.780;2023-05-13T03:02:25;8.70;99.90
6018;DHT22;3037;51.068;13.780;2023-05-13T03:04:52;8.60;99.90
6018;DHT22;3037;51.068;13.780;2023-05-13T03:07:19;8.50;99.90
6018;DHT22;3037;51.068;13.780;2023-05-13T03:09:45;8.50;99.90
6018;DHT22;3037;51.068;13.780;2023-05-13T03:12:10;8.60;99.90
6018;DHT22;3037;51.068;13.780;2023-05-13T03:14:36;8.50;99.90
6018;DHT22;3037;51.068;13.780;2023-05-13T03:17:05;8.50;99.90
6018;DHT22;3037;51.068;13.780;2023-05-13T03:19:32;8.50;99.90
6018;DHT22;3037;51.068;13.780;2023-05-13T03:21:58;8.50;99.90
6018;DHT22;3037;51.068;13.780;2023-05-13T03:24:24;8.60;99.90
6018;DHT22;3037;51.068;13.780;2023-05-13T03:26:49;8.60;99.90
6018;DHT22;3037;51.068;13.780;2023-05-13T03:29:15;8.60;99.90
6018;DHT22;3037;51.068;13.780;2023-05-13T03:31:40;8.70;99.90
6018;DHT22;3037;51.068;13.780;2023-05-13T03:34:06;8.70;99.90
6018;DHT22;3037;51.068;13.780;2023-05-13T03:36:32;8.80;99.90
6018;DHT22;3037;51.068;13.780;2023-05-13T03:38:57;8.90;99.90
6018;DHT22;3037;51.068;13.780;2023-05-13T03:41:23;8.80;99.90
6018;DHT22;3037;51.068;13.780;2023-05-13T03:43:48;8.70;99.90
6018;DHT22;3037;51.068;13.780;2023-05-13T03:46:14;8.70;99.90
6018;DHT22;3037;51.068;13.780;2023-05-13T03:48:39;8.70;99.90
6018;DHT22;3037;51.068;13.780;2023-05-13T03:51:05;8.80;99.90
6018;DHT22;3037;51.068;13.780;2023-05-13T03:53:31;8.90;99.90
6018;DHT22;3037;51.068;13.780;2023-05-13T03:55:56;9.00;99.90
6018;DHT22;3037;51.068;13.780;2023-05-13T03:58:22;8.90;99.90
6018;DHT22;3037;51.068;13.780;2023-05-13T04:00:47;8.90;99.90
6018;DHT22;3037;51.068;13.780;2023-05-13T04:03:14;9.10;99.90
6018;DHT22;3037;51.068;13.780;2023-05-13T04:05:45;9.10;99.90
6018;DHT22;3037;51.068;13.780;2023-05-13T04:08:10;9.10;99.90
6018;DHT22;3037;51.068;13.780;2023-05-13T04:10:36;9.10;99.90
6018;DHT22;3037;51.068;13.780;2023-05-13T04:13:02;9.20;99.90
6018;DHT22;3037;51.068;13.780;2023-05-13T04:15:27;9.20;99.90
6018;DHT22;3037;51.068;13.780;2023-05-13T04:17:53;9.30;99.90
6018;DHT22;3037;51.068;13.780;2023-05-13T04:20:18;9.20;99.90
6018;DHT22;3037;51.068;13.780;2023-05-13T04:22:44;9.20;99.90
6018;DHT22;3037;51.068;13.780;2023-05-13T04:25:10;9.30;99.90
6018;DHT22;3037;51.068;13.780;2023-05-13T04:27:35;9.30;99.90
6018;DHT22;3037;51.068;13.780;2023-05-13T04:30:01;9.40;99.90
6018;DHT22;3037;51.068;13.780;2023-05-13T04:32:26;9.50;99.90
6018;DHT22;3037;51.068;13.780;2023-05-13T04:34:53;9.60;99.90
6018;DHT22;3037;51.068;13.780;2023-05-13T04:37:19;9.60;99.90
6018;DHT22;3037;51.068;13.780;2023-05-13T04:39:45;9.80;99.90
6018;DHT22;3037;51.068;13.780;2023-05-13T04:42:11;9.80;99.90
6018;DHT22;3037;51.068;13.780;2023-05-13T04:44:37;9.90;99.90
6018;DHT22;3037;51.068;13.780;2023-05-13T04:47:02;9.80;99.90
6018;DHT22;3037;51.068;13.780;2023-05-13T04:49:28;9.90;99.90
6018;DHT22;3037;51.068;13.780;2023-05-13T04:51:53;10.10;99.90
6018;DHT22;3037;51.068;13.780;2023-05-13T04:54:19;10.10;99.90
6018;DHT22;3037;51.068;13.780;2023-05-13T04:56:45;10.30;99.90
6018;DHT22;3037;51.068;13.780;2023-05-13T04:59:10;10.30;99.90
6018;DHT22;3037;51.068;13.780;2023-05-13T05:01:36;10.30;99.90
6018;DHT22;3037;51.068;13.780;2023-05-13T05:04:01;10.40;99.90
6018;DHT22;3037;51.068;13.780;2023-05-13T05:06:27;10.30;99.90
6018;DHT22;3037;51.068;13.780;2023-05-13T05:08:52;10.30;99.90
6018;DHT22;3037;51.068;13.780;2023-05-13T05:11:18;10.40;99.90
6018;DHT22;3037;51.068;13.780;2023-05-13T05:13:43;10.60;99.90
6018;DHT22;3037;51.068;13.780;2023-05-13T05:16:09;10.60;99.90
6018;DHT22;3037;51.068;13.780;2023-05-13T05:18:34;10.70;99.90
6018;DHT22;3037;51.068;13.780;2023-05-13T05:21:01;10.90;99.90
6018;DHT22;3037;51.068;13.780;2023-05-13T05:23:27;11.10;99.90
6018;DHT22;3037;51.068;13.780;2023-05-13T05:25:52;11.20;99.90
6018;DHT22;3037;51.068;13.780;2023-05-13T05:28:18;11.30;99.90
6018;DHT22;3037;51.068;13.780;2023-05-13T05:30:44;11.20;99.90
6018;DHT22;3037;51.068;13.780;2023-05-13T05:33:09;11.40;99.90
6018;DHT22;3037;51.068;13.780;2023-05-13T05:35:35;11.60;99.90
6018;DHT22;3037;51.068;13.780;2023-05-13T05:38:03;11.60;99.90
6018;DHT22;3037;51.068;13.780;2023-05-13T05:40:31;11.80;99.90
6018;DHT22;3037;51.068;13.780;2023-05-13T05:42:57;12.00;99.90
6018;DHT22;3037;51.068;13.780;2023-05-13T05:45:23;12.00;99.90
6018;DHT22;3037;51.068;13.780;2023-05-13T05:47:48;12.00;99.90
6018;DHT22;3037;51.068;13.780;2023-05-13T05:50:14;12.10;99.90
6018;DHT22;3037;51.068;13.780;2023-05-13T05:52:39;12.60;99.90
6018;DHT22;3037;51.068;13.780;2023-05-13T05:55:05;12.80;99.90
6018;DHT22;3037;51.068;13.780;2023-05-13T05:57:31;13.00;99.90
6018;DHT22;3037;51.068;13.780;2023-05-13T05:59:57;13.10;99.90
6018;DHT22;3037;51.068;13.780;2023-05-13T06:02:22;13.10;99.90
6018;DHT22;3037;51.068;13.780;2023-05-13T06:04:48;13.20;99.90
6018;DHT22;3037;51.068;13.780;2023-05-13T06:07:14;14.00;99.90
6018;DHT22;3037;51.068;13.780;2023-05-13T06:09:39;17.00;90.50
6018;DHT22;3037;51.068;13.780;2023-05-13T06:12:05;19.20;49.10
6018;DHT22;3037;51.068;13.780;2023-05-13T06:14:31;20.10;26.30
6018;DHT22;3037;51.068;13.780;2023-05-13T06:16:56;20.60;11.80
6018;DHT22;3037;51.068;13.780;2023-05-13T06:19:22;20.70;4.50
6018;DHT22;3037;51.068;13.780;2023-05-13T06:21:47;21.20;1.00
6018;DHT22;3037;51.068;13.780;2023-05-13T06:24:13;21.70;1.00
6018;DHT22;3037;51.068;13.780;2023-05-13T06:26:38;22.20;1.00
6018;DHT22;3037;51.068;13.780;2023-05-13T06:29:04;22.80;1.00
6018;DHT22;3037;51.068;13.780;2023-05-13T06:31:29;23.20;1.00
6018;DHT22;3037;51.068;13.780;2023-05-13T06:33:55;23.60;1.00
6018;DHT22;3037;51.068;13.780;2023-05-13T06:36:20;24.50;1.00
6018;DHT22;3037;51.068;13.780;2023-05-13T06:38:46;24.50;1.00
6018;DHT22;3037;51.068;13.780;2023-05-13T06:41:11;25.00;1.00
6018;DHT22;3037;51.068;13.780;2023-05-13T06:43:37;24.70;1.00
6018;DHT22;3037;51.068;13.780;2023-05-13T06:46:03;26.40;1.00
6018;DHT22;3037;51.068;13.780;2023-05-13T06:48:28;26.20;1.00
6018;DHT22;3037;51.068;13.780;2023-05-13T06:50:54;26.70;1.00
6018;DHT22;3037;51.068;13.780;2023-05-13T06:53:20;26.50;1.00
6018;DHT22;3037;51.068;13.780;2023-05-13T06:55:46;25.80;1.00
6018;DHT22;3037;51.068;13.780;2023-05-13T06:58:11;25.70;1.00
6018;DHT22;3037;51.068;13.780;2023-05-13T07:00:39;26.30;1.00
6018;DHT22;3037;51.068;13.780;2023-05-13T07:03:07;27.10;1.00
6018;DHT22;3037;51.068;13.780;2023-05-13T07:05:33;26.60;1.00
6018;DHT22;3037;51.068;13.780;2023-05-13T07:07:59;27.70;1.00
6018;DHT22;3037;51.068;13.780;2023-05-13T07:10:24;27.50;1.00
6018;DHT22;3037;51.068;13.780;2023-05-13T07:12:50;27.40;1.00
6018;DHT22;3037;51.068;13.780;2023-05-13T07:15:16;28.60;1.00
6018;DHT22;3037;51.068;13.780;2023-05-13T07:17:41;28.20;1.00
6018;DHT22;3037;51.068;13.780;2023-05-13T07:20:07;28.70;1.00
6018;DHT22;3037;51.068;13.780;2023-05-13T07:22:34;28.70;1.00
6018;DHT22;3037;51.068;13.780;2023-05-13T07:25:00;28.60;1.00
6018;DHT22;3037;51.068;13.780;2023-05-13T07:27:25;28.00;1.00
6018;DHT22;3037;51.068;13.780;2023-05-13T07:29:51;30.00;1.00
6018;DHT22;3037;51.068;13.780;2023-05-13T07:32:16;30.20;1.00
6018;DHT22;3037;51.068;13.780;2023-05-13T07:34:42;30.20;1.00
6018;DHT22;3037;51.068;13.780;2023-05-13T07:37:08;28.80;1.00
6018;DHT22;3037;51.068;13.780;2023-05-13T07:39:33;30.40;1.00
6018;DHT22;3037;51.068;13.780;2023-05-13T07:42:00;30.20;1.00
6018;DHT22;3037;51.068;13.780;2023-05-13T07:44:25;29.30;1.00
6018;DHT22;3037;51.068;13.780;2023-05-13T07:46:51;29.70;1.00
6018;DHT22;3037;51.068;13.780;2023-05-13T07:49:18;29.40;1.00
6018;DHT22;3037;51.068;13.780;2023-05-13T07:51:44;30.20;1.00
6018;DHT22;3037;51.068;13.780;2023-05-13T07:54:10;29.90;1.00
6018;DHT22;3037;51.068;13.780;2023-05-13T07:56:35;31.40;1.00
6018;DHT22;3037;51.068;13.780;2023-05-13T07:59:02;31.20;1.00
6018;DHT22;3037;51.068;13.780;2023-05-13T08:01:28;29.90;1.00
6018;DHT22;3037;51.068;13.780;2023-05-13T08:03:54;31.60;1.00
6018;DHT22;3037;51.068;13.780;2023-05-13T08:06:19;31.90;1.00
6018;DHT22;3037;51.068;13.780;2023-05-13T08:08:45;31.40;1.00
6018;DHT22;3037;51.068;13.780;2023-05-13T08:11:10;31.60;1.00
6018;DHT22;3037;51.068;13.780;2023-05-13T08:13:36;30.50;1.00
6018;DHT22;3037;51.068;13.780;2023-05-13T08:16:02;29.50;1.00
6018;DHT22;3037;51.068;13.780;2023-05-13T08:18:28;29.30;1.00
6018;DHT22;3037;51.068;13.780;2023-05-13T08:20:54;29.20;1.00
6018;DHT22;3037;51.068;13.780;2023-05-13T08:23:19;29.00;1.00
6018;DHT22;3037;51.068;13.780;2023-05-13T08:25:45;30.00;1.00
6018;DHT22;3037;51.068;13.780;2023-05-13T08:28:10;29.80;1.00
6018;DHT22;3037;51.068;13.780;2023-05-13T08:30:36;27.10;1.00
6018;DHT22;3037;51.068;13.780;2023-05-13T08:33:04;28.10;1.00
6018;DHT22;3037;51.068;13.780;2023-05-13T08:35:30;27.60;1.00
6018;DHT22;3037;51.068;13.780;2023-05-13T08:37:56;27.30;1.00
6018;DHT22;3037;51.068;13.780;2023-05-13T08:40:25;27.20;1.00
6018;DHT22;3037;51.068;13.780;2023-05-13T08:42:51;27.90;1.00
6018;DHT22;3037;51.068;13.780;2023-05-13T08:45:20;28.20;1.00
6018;DHT22;3037;51.068;13.780;2023-05-13T08:47:59;28.20;1.00
6018;DHT22;3037;51.068;13.780;2023-05-13T08:50:27;27.90;1.00
6018;DHT22;3037;51.068;13.780;2023-05-13T08:52:53;28.50;1.00
6018;DHT22;3037;51.068;13.780;2023-05-13T08:55:19;27.20;1.00
6018;DHT22;3037;51.068;13.780;2023-05-13T08:57:44;27.80;1.00
6018;DHT22;3037;51.068;13.780;2023-05-13T09:00:10;28.00;1.00
6018;DHT22;3037;51.068;13.780;2023-05-13T09:02:36;28.70;1.00
6018;DHT22;3037;51.068;13.780;2023-05-13T09:05:05;29.80;1.00
6018;DHT22;3037;51.068;13.780;2023-05-13T09:07:32;28.50;1.00
6018;DHT22;3037;51.068;13.780;2023-05-13T09:09:58;28.80;1.00
6018;DHT22;3037;51.068;13.780;2023-05-13T09:12:52;28.60;1.00
6018;DHT22;3037;51.068;13.780;2023-05-13T09:15:25;26.90;1.00
6018;DHT22;3037;51.068;13.780;2023-05-13T09:17:54;25.70;1.00
6018;DHT22;3037;51.068;13.780;2023-05-13T09:20:20;26.40;1.00
6018;DHT22;3037;51.068;13.780;2023-05-13T09:25:12;25.60;1.00
6018;DHT22;3037;51.068;13.780;2023-05-13T09:27:42;25.60;1.00
6018;DHT22;3037;51.068;13.780;2023-05-13T09:30:09;26.20;1.00
6018;DHT22;3037;51.068;13.780;2023-05-13T09:32:35;27.40;1.00
6018;DHT22;3037;51.068;13.780;2023-05-13T09:35:10;26.60;1.00
6018;DHT22;3037;51.068;13.780;2023-05-13T09:37:37;25.10;1.00
6018;DHT22;3037;51.068;13.780;2023-05-13T09:40:03;25.20;1.00
6018;DHT22;3037;51.068;13.780;2023-05-13T09:42:29;24.30;1.00
6018;DHT22;3037;51.068;13.780;2023-05-13T09:44:57;26.00;1.00
6018;DHT22;3037;51.068;13.780;2023-05-13T09:47:28;27.20;1.00
6018;DHT22;3037;51.068;13.780;2023-05-13T09:49:55;25.90;1.00
6018;DHT22;3037;51.068;13.780;2023-05-13T09:52:21;26.00;1.00
6018;DHT22;3037;51.068;13.780;2023-05-13T09:54:47;27.80;1.00
6018;DHT22;3037;51.068;13.780;2023-05-13T09:57:13;27.30;1.00
6018;DHT22;3037;51.068;13.780;2023-05-13T09:59:39;25.50;1.00
6018;DHT22;3037;51.068;13.780;2023-05-13T10:02:06;24.00;1.00
6018;DHT22;3037;51.068;13.780;2023-05-13T10:04:32;23.70;1.00
6018;DHT22;3037;51.068;13.780;2023-05-13T10:06:58;23.80;1.00
6018;DHT22;3037;51.068;13.780;2023-05-13T10:09:26;23.80;1.00
6018;DHT22;3037;51.068;13.780;2023-05-13T10:11:52;23.90;1.00
6018;DHT22;3037;51.068;13.780;2023-05-13T10:14:18;24.20;1.00
6018;DHT22;3037;51.068;13.780;2023-05-13T10:16:44;23.60;1.00
6018;DHT22;3037;51.068;13.780;2023-05-13T10:19:12;23.80;1.00
6018;DHT22;3037;51.068;13.780;2023-05-13T10:21:38;24.00;1.00
6018;DHT22;3037;51.068;13.780;2023-05-13T10:24:05;23.90;1.00
6018;DHT22;3037;51.068;13.780;2023-05-13T10:26:31;24.30;1.00
6018;DHT22;3037;51.068;13.780;2023-05-13T10:28:58;24.40;1.00
6018;DHT22;3037;51.068;13.780;2023-05-13T10:31:24;24.80;1.00
6018;DHT22;3037;51.068;13.780;2023-05-13T10:33:51;23.80;1.00
6018;DHT22;3037;51.068;13.780;2023-05-13T10:36:57;23.40;1.00
6018;DHT22;3037;51.068;13.780;2023-05-13T10:42:34;22.70;1.00
6018;DHT22;3037;51.068;13.780;2023-05-13T10:45:01;22.40;1.00
6018;DHT22;3037;51.068;13.780;2023-05-13T10:47:31;22.00;1.00
6018;DHT22;3037;51.068;13.780;2023-05-13T10:49:56;21.70;1.00
6018;DHT22;3037;51.068;13.780;2023-05-13T10:52:22;21.20;1.00
6018;DHT22;3037;51.068;13.780;2023-05-13T10:55:01;20.90;1.00
6018;DHT22;3037;51.068;13.780;2023-05-13T10:57:36;20.80;1.00
6018;DHT22;3037;51.068;13.780;2023-05-13T11:00:14;20.70;1.00
6018;DHT22;3037;51.068;13.780;2023-05-13T11:02:40;20.40;1.00
6018;DHT22;3037;51.068;13.780;2023-05-13T11:05:06;20.20;1.00
6018;DHT22;3037;51.068;13.780;2023-05-13T11:07:37;19.40;1.00
6018;DHT22;3037;51.068;13.780;2023-05-13T11:10:08;19.10;1.00
6018;DHT22;3037;51.068;13.780;2023-05-13T11:13:35;18.80;1.00
6018;DHT22;3037;51.068;13.780;2023-05-13T11:16:04;18.90;1.00
6018;DHT22;3037;51.068;13.780;2023-05-13T11:18:32;18.90;1.00
6018;DHT22;3037;51.068;13.780;2023-05-13T11:21:02;18.90;34.30
6018;DHT22;3037;51.068;13.780;2023-05-13T11:23:29;18.90;55.60
6018;DHT22;3037;51.068;13.780;2023-05-13T11:26:10;19.00;50.80
6018;DHT22;3037;51.068;13.780;2023-05-13T11:29:05;18.90;52.20
6018;DHT22;3037;51.068;13.780;2023-05-13T11:31:50;19.20;54.00
6018;DHT22;3037;51.068;13.780;2023-05-13T11:34:18;19.70;45.70
6018;DHT22;3037;51.068;13.780;2023-05-13T11:39:27;20.20;30.90
6018;DHT22;3037;51.068;13.780;2023-05-13T11:41:53;20.40;26.30
6018;DHT22;3037;51.068;13.780;2023-05-13T11:44:23;20.50;7.70
6018;DHT22;3037;51.068;13.780;2023-05-13T11:49:44;20.20;1.00
6018;DHT22;3037;51.068;13.780;2023-05-13T11:52:19;20.20;1.00
6018;DHT22;3037;51.068;13.780;2023-05-13T11:54:55;21.40;1.00
6018;DHT22;3037;51.068;13.780;2023-05-13T11:57:24;20.60;1.00
6018;DHT22;3037;51.068;13.780;2023-05-13T11:59:58;20.60;1.00
6018;DHT22;3037;51.068;13.780;2023-05-13T12:02:29;20.30;1.00
6018;DHT22;3037;51.068;13.780;2023-05-13T12:04:58;20.30;1.00
6018;DHT22;3037;51.068;13.780;2023-05-13T12:07:25;20.40;1.00
6018;DHT22;3037;51.068;13.780;2023-05-13T12:09:52;20.60;1.00
6018;DHT22;3037;51.068;13.780;2023-05-13T12:12:18;20.20;1.00
6018;DHT22;3037;51.068;13.780;2023-05-13T12:14:45;20.10;1.00
6018;DHT22;3037;51.068;13.780;2023-05-13T12:17:12;20.10;1.00
6018;DHT22;3037;51.068;13.780;2023-05-13T12:19:39;20.30;1.00
6018;DHT22;3037;51.068;13.780;2023-05-13T12:22:04;20.10;1.00
6018;DHT22;3037;51.068;13.780;2023-05-13T12:24:32;20.40;1.00
6018;DHT22;3037;51.068;13.780;2023-05-13T12:27:05;20.30;1.00
6018;DHT22;3037;51.068;13.780;2023-05-13T12:29:41;20.00;1.00
6018;DHT22;3037;51.068;13.780;2023-05-13T12:32:06;19.60;1.00
6018;DHT22;3037;51.068;13.780;2023-05-13T12:34:33;19.70;1.00
6018;DHT22;3037;51.068;13.780;2023-05-13T12:37:09;19.80;1.00
6018;DHT22;3037;51.068;13.780;2023-05-13T12:39:36;19.40;1.00
6018;DHT22;3037;51.068;13.780;2023-05-13T12:42:02;18.90;1.00
6018;DHT22;3037;51.068;13.780;2023-05-13T12:44:27;19.00;1.00
6018;DHT22;3037;51.068;13.780;2023-05-13T12:46:55;19.20;1.00
6018;DHT22;3037;51.068;13.780;2023-05-13T12:49:25;19.10;1.00
6018;DHT22;3037;51.068;13.780;2023-05-13T12:51:50;19.30;1.00
6018;DHT22;3037;51.068;13.780;2023-05-13T12:54:16;19.20;1.00
6018;DHT22;3037;51.068;13.780;2023-05-13T12:56:42;19.50;1.00
6018;DHT22;3037;51.068;13.780;2023-05-13T12:59:07;19.30;1.00
6018;DHT22;3037;51.068;13.780;2023-05-13T13:01:33;19.30;1.00
6018;DHT22;3037;51.068;13.780;2023-05-13T13:03:59;19.40;1.00
6018;DHT22;3037;51.068;13.780;2023-05-13T13:06:25;19.50;1.00
6018;DHT22;3037;51.068;13.780;2023-05-13T13:08:50;19.60;1.00
6018;DHT22;3037;51.068;13.780;2023-05-13T13:11:16;20.00;1.00
6018;DHT22;3037;51.068;13.780;2023-05-13T13:13:46;20.20;1.00
6018;DHT22;3037;51.068;13.780;2023-05-13T13:16:12;19.80;1.00
6018;DHT22;3037;51.068;13.780;2023-05-13T13:18:38;19.60;1.00
6018;DHT22;3037;51.068;13.780;2023-05-13T13:21:04;19.80;1.00
6018;DHT22;3037;51.068;13.780;2023-05-13T13:23:31;19.40;1.00
6018;DHT22;3037;51.068;13.780;2023-05-13T13:25:56;20.00;1.00
6018;DHT22;3037;51.068;13.780;2023-05-13T13:28:26;19.70;1.00
6018;DHT22;3037;51.068;13.780;2023-05-13T13:30:52;19.50;1.00
6018;DHT22;3037;51.068;13.780;2023-05-13T13:33:18;19.80;1.00
6018;DHT22;3037;51.068;13.780;2023-05-13T13:35:44;19.70;1.00
6018;DHT22;3037;51.068;13.780;2023-05-13T13:38:11;19.70;1.00
6018;DHT22;3037;51.068;13.780;2023-05-13T13:40:37;19.60;1.00
6018;DHT22;3037;51.068;13.780;2023-05-13T13:43:04;19.50;1.00
6018;DHT22;3037;51.068;13.780;2023-05-13T13:45:30;19.20;1.00
6018;DHT22;3037;51.068;13.780;2023-05-13T13:47:56;19.20;1.00
6018;DHT22;3037;51.068;13.780;2023-05-13T13:50:21;19.20;1.00
6018;DHT22;3037;51.068;13.780;2023-05-13T13:52:47;19.10;1.00
6018;DHT22;3037;51.068;13.780;2023-05-13T13:55:12;19.00;1.00
6018;DHT22;3037;51.068;13.780;2023-05-13T13:57:39;19.10;1.00
6018;DHT22;3037;51.068;13.780;2023-05-13T14:00:05;19.00;1.00
6018;DHT22;3037;51.068;13.780;2023-05-13T14:02:30;18.90;1.00
6018;DHT22;3037;51.068;13.780;2023-05-13T14:04:56;19.00;1.00
6018;DHT22;3037;51.068;13.780;2023-05-13T14:07:22;18.50;1.00
6018;DHT22;3037;51.068;13.780;2023-05-13T14:09:47;18.40;1.00
6018;DHT22;3037;51.068;13.780;2023-05-13T14:12:14;18.10;1.00
6018;DHT22;3037;51.068;13.780;2023-05-13T14:14:39;18.00;1.00
6018;DHT22;3037;51.068;13.780;2023-05-13T14:17:05;18.20;1.00
6018;DHT22;3037;51.068;13.780;2023-05-13T14:19:30;18.10;1.00
6018;DHT22;3037;51.068;13.780;2023-05-13T14:21:56;18.10;1.00
6018;DHT22;3037;51.068;13.780;2023-05-13T14:24:23;17.90;1.00
6018;DHT22;3037;51.068;13.780;2023-05-13T14:26:48;17.80;1.00
6018;DHT22;3037;51.068;13.780;2023-05-13T14:29:14;18.00;1.00
6018;DHT22;3037;51.068;13.780;2023-05-13T14:31:40;17.90;4.30
6018;DHT22;3037;51.068;13.780;2023-05-13T14:34:05;17.80;6.20
6018;DHT22;3037;51.068;13.780;2023-05-13T14:36:31;17.90;11.20
6018;DHT22;3037;51.068;13.780;2023-05-13T14:38:57;17.90;10.60
6018;DHT22;3037;51.068;13.780;2023-05-13T14:41:22;18.00;7.60
6018;DHT22;3037;51.068;13.780;2023-05-13T14:43:49;18.00;9.00
6018;DHT22;3037;51.068;13.780;2023-05-13T14:46:15;17.70;8.90
6018;DHT22;3037;51.068;13.780;2023-05-13T14:48:41;17.80;13.20
6018;DHT22;3037;51.068;13.780;2023-05-13T14:51:06;17.80;17.50
6018;DHT22;3037;51.068;13.780;2023-05-13T14:53:32;18.00;18.50
6018;DHT22;3037;51.068;13.780;2023-05-13T14:55:57;18.20;14.50
6018;DHT22;3037;51.068;13.780;2023-05-13T14:58:23;18.40;16.90
6018;DHT22;3037;51.068;13.780;2023-05-13T15:00:49;18.20;9.00
6018;DHT22;3037;51.068;13.780;2023-05-13T15:03:14;18.40;8.70
6018;DHT22;3037;51.068;13.780;2023-05-13T15:05:41;18.20;12.30
6018;DHT22;3037;51.068;13.780;2023-05-13T15:08:07;18.30;9.40
6018;DHT22;3037;51.068;13.780;2023-05-13T15:10:32;18.20;9.90
6018;DHT22;3037;51.068;13.780;2023-05-13T15:12:58;18.10;12.10
6018;DHT22;3037;51.068;13.780;2023-05-13T15:15:24;18.00;10.70
6018;DHT22;3037;51.068;13.780;2023-05-13T15:17:50;18.10;11.70
6018;DHT22;3037;51.068;13.780;2023-05-13T15:20:16;17.90;14.40
6018;DHT22;3037;51.068;13.780;2023-05-13T15:22:41;17.80;19.00
6018;DHT22;3037;51.068;13.780;2023-05-13T15:25:07;17.60;26.30
6018;DHT22;3037;51.068;13.780;2023-05-13T15:27:33;17.50;36.00
6018;DHT22;3037;51.068;13.780;2023-05-13T15:29:58;17.20;49.50
6018;DHT22;3037;51.068;13.780;2023-05-13T15:32:24;17.00;57.10
6018;DHT22;3037;51.068;13.780;2023-05-13T15:34:49;16.70;61.10
6018;DHT22;3037;51.068;13.780;2023-05-13T15:37:15;16.70;62.00
6018;DHT22;3037;51.068;13.780;2023-05-13T15:39:41;16.50;68.20
6018;DHT22;3037;51.068;13.780;2023-05-13T15:42:06;16.30;73.70
6018;DHT22;3037;51.068;13.780;2023-05-13T15:44:32;16.10;79.40
6018;DHT22;3037;51.068;13.780;2023-05-13T15:46:57;16.20;72.60
6018;DHT22;3037;51.068;13.780;2023-05-13T15:49:23;16.20;74.20
6018;DHT22;3037;51.068;13.780;2023-05-13T15:51:50;16.10;81.90
6018;DHT22;3037;51.068;13.780;2023-05-13T15:54:17;16.10;75.50
6018;DHT22;3037;51.068;13.780;2023-05-13T15:56:42;16.00;86.50
6018;DHT22;3037;51.068;13.780;2023-05-13T15:59:08;16.00;90.20
6018;DHT22;3037;51.068;13.780;2023-05-13T16:01:33;15.80;93.00
6018;DHT22;3037;51.068;13.780;2023-05-13T16:03:59;15.60;95.50
6018;DHT22;3037;51.068;13.780;2023-05-13T16:06:24;15.60;98.10
6018;DHT22;3037;51.068;13.780;2023-05-13T16:08:50;15.60;99.90